createdAt,value
2018-11-29T00:01:18.307Z,22.84
2018-11-29T00:02:18.323Z,22.78
2018-11-29T00:04:11.273Z,22.78
2018-11-29T00:05:11.298Z,22.84
2018-11-29T00:07:04.245Z,22.68
2018-11-29T00:08:04.274Z,22.70
2018-11-29T00:09:57.228Z,22.71
2018-11-29T00:10:57.247Z,22.67
2018-11-29T00:12:50.206Z,22.68
2018-11-29T00:13:50.236Z,22.67
2018-11-29T00:15:43.193Z,22.76
2018-11-29T00:16:43.212Z,22.70
2018-11-29T00:18:36.158Z,22.68
2018-11-29T00:19:36.186Z,22.67
2018-11-29T00:21:29.140Z,22.70
2018-11-29T00:22:29.159Z,22.71
2018-11-29T00:24:22.108Z,22.74
2018-11-29T00:25:22.139Z,22.74
2018-11-29T00:27:15.094Z,22.73
2018-11-29T00:28:15.118Z,22.62
2018-11-29T00:30:08.072Z,22.68
2018-11-29T00:31:08.092Z,22.61
2018-11-29T00:33:01.042Z,22.67
2018-11-29T00:34:01.068Z,22.59
2018-11-29T00:35:54.020Z,22.70
2018-11-29T00:36:54.041Z,22.62
2018-11-29T00:38:46.991Z,22.67
2018-11-29T00:39:47.018Z,22.63
2018-11-29T00:41:39.972Z,22.63
2018-11-29T00:42:39.992Z,22.67
2018-11-29T00:44:32.936Z,22.63
2018-11-29T00:45:32.969Z,22.62
2018-11-29T00:47:25.924Z,22.58
2018-11-29T00:48:25.940Z,22.68
2018-11-29T00:50:18.897Z,22.70
2018-11-29T00:51:18.920Z,22.65
2018-11-29T00:53:11.862Z,22.61
2018-11-29T00:54:11.890Z,22.62
2018-11-29T00:56:04.846Z,22.58
2018-11-29T00:57:04.868Z,22.59
2018-11-29T00:58:57.815Z,22.63
2018-11-29T00:59:57.842Z,22.51
2018-11-29T01:01:50.797Z,22.59
2018-11-29T01:02:50.816Z,22.55
2018-11-29T01:04:43.765Z,22.52
2018-11-29T01:05:43.791Z,22.53
2018-11-29T01:07:36.743Z,22.55
2018-11-29T01:08:36.770Z,22.51
2018-11-29T01:10:29.723Z,22.55
2018-11-29T01:11:29.746Z,22.55
2018-11-29T01:13:22.689Z,22.49
2018-11-29T01:14:22.724Z,22.59
2018-11-29T01:16:15.669Z,22.55
2018-11-29T01:17:15.690Z,22.53
2018-11-29T01:19:08.637Z,22.55
2018-11-29T01:20:08.663Z,22.58
2018-11-29T01:22:01.619Z,22.52
2018-11-29T01:23:01.641Z,22.46
2018-11-29T01:24:54.585Z,22.58
2018-11-29T01:25:54.616Z,22.47
2018-11-29T01:27:47.576Z,22.53
2018-11-29T01:28:47.591Z,22.53
2018-11-29T01:30:40.534Z,22.49
2018-11-29T01:31:40.565Z,22.51
2018-11-29T01:33:33.520Z,22.49
2018-11-29T01:34:33.540Z,22.51
2018-11-29T01:36:26.496Z,22.44
2018-11-29T01:37:26.518Z,22.47
2018-11-29T01:39:19.465Z,22.49
2018-11-29T01:40:19.493Z,22.47
2018-11-29T01:42:12.449Z,22.46
2018-11-29T01:43:12.465Z,22.46
2018-11-29T01:45:05.413Z,22.55
2018-11-29T01:46:05.446Z,22.46
2018-11-29T01:47:58.393Z,22.49
2018-11-29T01:48:58.418Z,22.51
2018-11-29T01:50:51.364Z,22.41
2018-11-29T01:51:51.394Z,22.44
2018-11-29T01:53:44.343Z,22.40
2018-11-29T01:54:44.364Z,22.44
2018-11-29T01:56:37.324Z,22.51
2018-11-29T01:57:37.340Z,22.43
2018-11-29T01:59:30.288Z,22.43
2018-11-29T02:00:30.314Z,22.44
2018-11-29T02:02:23.269Z,22.41
2018-11-29T02:03:23.291Z,22.41
2018-11-29T02:05:16.237Z,22.38
2018-11-29T02:06:16.271Z,22.40
2018-11-29T02:08:09.221Z,22.41
2018-11-29T02:09:09.239Z,22.40
2018-11-29T02:11:02.192Z,22.38
2018-11-29T02:12:02.222Z,22.38
2018-11-29T02:13:55.177Z,22.30
2018-11-29T02:14:55.200Z,22.40
2018-11-29T02:16:48.161Z,22.41
2018-11-29T02:17:48.172Z,22.37
2018-11-29T02:19:41.121Z,22.34
2018-11-29T02:20:41.152Z,22.37
2018-11-29T02:22:34.106Z,22.41
2018-11-29T02:23:34.126Z,22.37
2018-11-29T02:25:27.072Z,22.38
2018-11-29T02:26:27.100Z,22.34
2018-11-29T02:28:20.049Z,22.26
2018-11-29T02:29:20.076Z,22.25
2018-11-29T02:31:13.018Z,22.43
2018-11-29T02:32:13.049Z,22.28
2018-11-29T02:34:06.003Z,22.26
2018-11-29T02:35:06.020Z,22.34
2018-11-29T02:36:58.969Z,22.26
2018-11-29T02:37:58.999Z,22.33
2018-11-29T02:39:51.952Z,22.30
2018-11-29T02:40:51.978Z,22.25
2018-11-29T02:42:44.923Z,22.31
2018-11-29T02:43:44.948Z,22.22
2018-11-29T02:45:37.893Z,22.41
2018-11-29T02:46:37.931Z,22.25
2018-11-29T02:48:30.885Z,22.31
2018-11-29T02:49:30.897Z,22.22
2018-11-29T02:51:23.842Z,22.26
2018-11-29T02:52:23.873Z,22.25
2018-11-29T02:54:16.831Z,22.36
2018-11-29T02:55:16.851Z,22.25
2018-11-29T02:57:09.794Z,22.22
2018-11-29T02:58:09.823Z,22.30
2018-11-29T03:00:02.774Z,22.25
2018-11-29T03:01:02.797Z,22.26
2018-11-29T03:02:55.753Z,22.25
2018-11-29T03:03:55.770Z,22.34
2018-11-29T03:05:48.714Z,22.25
2018-11-29T03:06:48.749Z,22.22
2018-11-29T03:08:41.700Z,22.25
2018-11-29T03:09:41.726Z,22.28
2018-11-29T03:11:34.670Z,22.26
2018-11-29T03:12:34.700Z,22.25
2018-11-29T03:14:27.649Z,22.23
2018-11-29T03:15:27.668Z,22.25
2018-11-29T03:17:20.616Z,22.30
2018-11-29T03:18:20.642Z,22.28
2018-11-29T03:20:13.664Z,22.28
2018-11-29T03:21:13.621Z,22.19
2018-11-29T03:23:06.581Z,22.25
2018-11-29T03:24:06.592Z,22.18
2018-11-29T03:25:59.538Z,22.21
2018-11-29T03:26:59.568Z,22.15
2018-11-29T03:28:52.513Z,22.25
2018-11-29T03:29:52.541Z,22.18
2018-11-29T03:31:45.482Z,22.19
2018-11-29T03:32:45.545Z,22.15
2018-11-29T03:34:38.466Z,22.18
2018-11-29T03:35:38.489Z,22.21
2018-11-29T03:37:31.440Z,22.18
2018-11-29T03:38:31.468Z,22.15
2018-11-29T03:40:24.423Z,22.18
2018-11-29T03:41:24.438Z,22.15
2018-11-29T03:43:17.385Z,22.18
2018-11-29T03:44:17.414Z,22.19
2018-11-29T03:46:10.364Z,22.18
2018-11-29T03:47:10.386Z,22.21
2018-11-29T03:49:03.342Z,22.16
2018-11-29T03:50:03.362Z,22.14
2018-11-29T03:51:56.308Z,22.19
2018-11-29T03:52:56.334Z,22.21
2018-11-29T03:54:49.290Z,22.18
2018-11-29T03:55:49.308Z,22.15
2018-11-29T03:57:42.252Z,22.12
2018-11-29T03:58:42.283Z,22.18
2018-11-29T04:00:35.235Z,22.15
2018-11-29T04:01:35.256Z,22.08
2018-11-29T04:03:28.202Z,22.16
2018-11-29T04:04:28.233Z,22.12
2018-11-29T04:06:21.182Z,22.19
2018-11-29T04:07:21.205Z,22.12
2018-11-29T04:09:14.156Z,22.14
2018-11-29T04:10:14.179Z,22.16
2018-11-29T04:12:07.120Z,22.16
2018-11-29T04:13:07.153Z,22.10
2018-11-29T04:15:00.107Z,22.14
2018-11-29T04:16:00.127Z,22.10
2018-11-29T04:17:53.071Z,22.04
2018-11-29T04:18:53.099Z,22.14
2018-11-29T04:20:46.052Z,22.19
2018-11-29T04:21:46.070Z,22.04
2018-11-29T04:23:39.017Z,22.16
2018-11-29T04:24:39.045Z,22.03
2018-11-29T04:26:32.000Z,22.07
2018-11-29T04:27:32.020Z,22.07
2018-11-29T04:29:24.975Z,22.16
2018-11-29T04:30:24.999Z,22.16
2018-11-29T04:32:17.940Z,22.04
2018-11-29T04:33:17.972Z,22.01
2018-11-29T04:35:10.930Z,22.04
2018-11-29T04:36:10.952Z,22.06
2018-11-29T04:38:03.894Z,22.07
2018-11-29T04:39:03.924Z,22.08
2018-11-29T04:40:56.880Z,22.14
2018-11-29T04:41:56.900Z,22.14
2018-11-29T04:43:49.845Z,22.14
2018-11-29T04:44:49.877Z,22.12
2018-11-29T04:46:42.831Z,22.06
2018-11-29T04:47:42.854Z,22.03
2018-11-29T04:49:35.809Z,22.18
2018-11-29T04:50:35.829Z,22.04
2018-11-29T04:52:28.774Z,22.15
2018-11-29T04:53:28.805Z,22.07
2018-11-29T04:55:21.764Z,22.01
2018-11-29T04:56:21.778Z,22.03
2018-11-29T04:58:14.726Z,22.08
2018-11-29T04:59:14.753Z,22.08
2018-11-29T05:01:07.716Z,22.08
2018-11-29T05:02:07.725Z,22.07
2018-11-29T05:04:00.669Z,22.07
2018-11-29T05:05:00.700Z,22.07
2018-11-29T05:06:53.655Z,22.03
2018-11-29T05:07:53.675Z,22.15
2018-11-29T05:09:46.623Z,22.06
2018-11-29T05:10:46.645Z,22.14
2018-11-29T05:12:39.590Z,22.03
2018-11-29T05:13:39.621Z,22.03
2018-11-29T05:15:32.579Z,22.15
2018-11-29T05:16:32.596Z,22.16
2018-11-29T05:18:25.538Z,22.10
2018-11-29T05:19:25.569Z,22.12
2018-11-29T05:21:18.519Z,22.12
2018-11-29T05:22:18.540Z,22.01
2018-11-29T05:24:11.486Z,22.12
2018-11-29T05:25:11.516Z,22.07
2018-11-29T05:27:04.471Z,22.18
2018-11-29T05:28:04.492Z,22.07
2018-11-29T05:29:57.447Z,22.21
2018-11-29T05:30:57.466Z,22.06
2018-11-29T05:32:50.414Z,22.14
2018-11-29T05:33:50.440Z,22.16
2018-11-29T05:35:43.396Z,22.16
2018-11-29T05:36:43.413Z,22.04
2018-11-29T05:38:36.373Z,22.18
2018-11-29T05:39:36.393Z,22.14
2018-11-29T05:41:29.343Z,22.10
2018-11-29T05:42:29.363Z,22.16
2018-11-29T05:44:22.310Z,22.16
2018-11-29T05:45:22.336Z,22.23
2018-11-29T05:47:15.292Z,22.18
2018-11-29T05:48:15.307Z,22.25
2018-11-29T05:50:08.266Z,22.14
2018-11-29T05:51:08.285Z,22.18
2018-11-29T05:53:01.227Z,22.31
2018-11-29T05:54:01.259Z,22.26
2018-11-29T05:55:54.211Z,22.41
2018-11-29T05:56:54.230Z,22.43
2018-11-29T05:58:47.178Z,22.46
2018-11-29T05:59:47.206Z,22.46
2018-11-29T06:01:40.162Z,22.52
2018-11-29T06:02:40.179Z,22.53
2018-11-29T06:04:33.126Z,22.56
2018-11-29T06:05:33.155Z,22.53
2018-11-29T06:07:26.114Z,22.62
2018-11-29T06:08:26.133Z,22.67
2018-11-29T06:10:19.087Z,22.63
2018-11-29T06:11:19.107Z,22.63
2018-11-29T06:13:12.055Z,22.74
2018-11-29T06:14:12.082Z,22.74
2018-11-29T06:16:05.039Z,22.83
2018-11-29T06:17:05.055Z,22.77
2018-11-29T06:18:57.996Z,22.80
2018-11-29T06:19:58.029Z,22.80
2018-11-29T06:21:50.984Z,22.83
2018-11-29T06:22:51.004Z,22.83
2018-11-29T06:24:43.952Z,22.83
2018-11-29T06:25:43.982Z,22.84
2018-11-29T06:27:36.937Z,22.71
2018-11-29T06:28:36.955Z,22.74
2018-11-29T06:30:29.911Z,22.76
2018-11-29T06:31:29.927Z,22.81
2018-11-29T06:33:22.878Z,22.78
2018-11-29T06:34:22.906Z,22.73
2018-11-29T06:36:15.861Z,22.83
2018-11-29T06:37:15.880Z,22.78
2018-11-29T06:39:08.828Z,22.77
2018-11-29T06:40:08.857Z,22.67
2018-11-29T06:42:01.812Z,22.71
2018-11-29T06:43:01.834Z,22.74
2018-11-29T06:44:54.779Z,22.81
2018-11-29T06:45:54.808Z,22.80
2018-11-29T06:47:47.766Z,22.74
2018-11-29T06:48:47.785Z,22.63
2018-11-29T06:50:40.743Z,22.15
2018-11-29T06:51:40.763Z,21.92
2018-11-29T06:53:33.710Z,21.47
2018-11-29T06:54:33.739Z,21.41
2018-11-29T06:56:26.694Z,21.75
2018-11-29T06:57:26.718Z,22.03
2018-11-29T06:59:20.152Z,22.46
2018-11-29T07:00:20.179Z,22.44
2018-11-29T07:02:13.135Z,22.61
2018-11-29T07:03:13.153Z,22.70
2018-11-29T07:05:06.099Z,22.71
2018-11-29T07:06:06.130Z,22.76
2018-11-29T07:07:59.083Z,22.80
2018-11-29T07:08:59.107Z,22.84
2018-11-29T07:10:52.060Z,22.84
2018-11-29T07:11:52.078Z,22.83
2018-11-29T07:13:45.034Z,22.89
2018-11-29T07:14:45.059Z,22.88
2018-11-29T07:16:38.008Z,22.86
2018-11-29T07:17:38.031Z,22.80
2018-11-29T07:19:30.979Z,22.81
2018-11-29T07:20:31.008Z,22.83
2018-11-29T07:22:23.958Z,22.80
2018-11-29T07:23:23.981Z,22.88
2018-11-29T07:25:16.926Z,22.81
2018-11-29T07:26:16.957Z,22.84
2018-11-29T07:28:09.912Z,22.83
2018-11-29T07:29:09.932Z,22.88
2018-11-29T07:31:02.877Z,22.86
2018-11-29T07:32:02.908Z,22.80
2018-11-29T07:33:55.863Z,22.81
2018-11-29T07:34:55.884Z,22.84
2018-11-29T07:36:49.339Z,22.86
2018-11-29T07:37:49.360Z,22.84
2018-11-29T07:39:42.306Z,22.81
2018-11-29T07:40:42.337Z,22.86
2018-11-29T07:42:35.294Z,22.83
2018-11-29T07:43:35.310Z,22.83
2018-11-29T07:45:28.262Z,22.99
2018-11-29T07:46:28.290Z,22.84
2018-11-29T07:48:21.248Z,22.92
2018-11-29T07:49:21.266Z,22.96
2018-11-29T07:51:14.210Z,22.89
2018-11-29T07:52:14.241Z,22.92
2018-11-29T07:54:07.192Z,22.93
2018-11-29T07:55:07.215Z,22.93
2018-11-29T07:57:00.161Z,22.93
2018-11-29T07:58:00.192Z,23.02
2018-11-29T07:59:53.147Z,23.06
2018-11-29T08:00:53.166Z,22.99
2018-11-29T08:02:46.122Z,23.02
2018-11-29T08:03:46.141Z,23.06
2018-11-29T08:05:39.089Z,22.99
2018-11-29T08:06:39.121Z,23.01
2018-11-29T08:08:32.074Z,22.99
2018-11-29T08:09:32.095Z,22.96
2018-11-29T08:11:25.045Z,23.08
2018-11-29T08:12:25.071Z,23.06
2018-11-29T08:14:18.025Z,23.06
2018-11-29T08:15:18.046Z,23.04
2018-11-29T08:17:10.992Z,22.99
2018-11-29T08:18:11.023Z,22.99
2018-11-29T08:20:03.975Z,23.01
2018-11-29T08:21:03.999Z,23.08
2018-11-29T08:22:56.952Z,23.07
2018-11-29T08:23:56.976Z,23.08
2018-11-29T08:25:49.921Z,23.08
2018-11-29T08:26:49.954Z,23.02
2018-11-29T08:28:42.908Z,23.11
2018-11-29T08:29:42.931Z,23.10
2018-11-29T08:31:35.877Z,23.13
2018-11-29T08:32:35.906Z,23.14
2018-11-29T08:34:28.864Z,23.13
2018-11-29T08:35:28.884Z,23.13
2018-11-29T08:37:21.830Z,23.10
2018-11-29T08:38:21.862Z,23.16
2018-11-29T08:40:14.816Z,23.08
2018-11-29T08:41:14.835Z,23.17
2018-11-29T08:43:07.784Z,23.18
2018-11-29T08:44:07.814Z,23.11
2018-11-29T08:46:00.767Z,23.16
2018-11-29T08:47:00.787Z,23.16
2018-11-29T08:48:53.754Z,23.25
2018-11-29T08:49:53.770Z,23.16
2018-11-29T08:51:46.717Z,23.17
2018-11-29T08:52:46.747Z,23.18
2018-11-29T08:54:39.699Z,23.11
2018-11-29T08:55:39.721Z,23.13
2018-11-29T08:57:32.668Z,23.20
2018-11-29T08:58:32.697Z,23.20
2018-11-29T09:00:25.654Z,23.28
2018-11-29T09:01:25.677Z,23.13
2018-11-29T09:03:18.623Z,23.28
2018-11-29T09:04:18.654Z,23.26
2018-11-29T09:06:11.608Z,23.21
2018-11-29T09:07:11.629Z,23.26
2018-11-29T09:09:04.576Z,23.23
2018-11-29T09:10:04.606Z,23.23
2018-11-29T09:11:57.563Z,23.21
2018-11-29T09:12:57.587Z,23.17
2018-11-29T09:14:50.545Z,23.21
2018-11-29T09:15:50.572Z,23.33
2018-11-29T09:17:43.552Z,23.29
2018-11-29T09:18:43.542Z,23.28
2018-11-29T09:20:36.495Z,23.28
2018-11-29T09:21:36.521Z,23.26
2018-11-29T09:23:29.464Z,23.28
2018-11-29T09:24:29.494Z,23.29
2018-11-29T09:26:22.450Z,23.25
2018-11-29T09:27:22.472Z,23.28
2018-11-29T09:29:15.419Z,23.25
2018-11-29T09:30:15.448Z,23.39
2018-11-29T09:32:08.404Z,23.29
2018-11-29T09:33:08.420Z,23.29
2018-11-29T09:35:01.498Z,23.28
2018-11-29T09:36:01.403Z,23.33
2018-11-29T09:37:54.351Z,23.17
2018-11-29T09:38:54.381Z,23.32
2018-11-29T09:40:47.337Z,23.20
2018-11-29T09:41:47.357Z,23.26
2018-11-29T09:43:40.301Z,23.20
2018-11-29T09:44:40.333Z,23.14
2018-11-29T09:46:33.289Z,23.16
2018-11-29T09:47:33.308Z,23.10
2018-11-29T09:49:26.253Z,23.23
2018-11-29T09:50:26.284Z,23.32
2018-11-29T09:52:19.240Z,23.18
2018-11-29T09:53:19.259Z,23.16
2018-11-29T09:55:12.210Z,23.20
2018-11-29T09:56:12.238Z,23.21
2018-11-29T09:58:05.193Z,23.21
2018-11-29T09:59:05.219Z,23.32
2018-11-29T10:00:58.170Z,23.26
2018-11-29T10:01:58.189Z,23.32
2018-11-29T10:03:51.137Z,23.33
2018-11-29T10:04:51.167Z,23.21
2018-11-29T10:06:44.123Z,23.23
2018-11-29T10:07:44.146Z,23.32
2018-11-29T10:09:37.088Z,23.28
2018-11-29T10:10:37.119Z,23.29
2018-11-29T10:12:30.074Z,23.29
2018-11-29T10:13:30.098Z,23.28
2018-11-29T10:15:23.047Z,23.39
2018-11-29T10:16:23.080Z,23.29
2018-11-29T10:18:16.033Z,23.32
2018-11-29T10:19:16.054Z,23.28
2018-11-29T10:21:09.013Z,23.23
2018-11-29T10:22:09.090Z,23.28
2018-11-29T10:24:01.976Z,23.37
2018-11-29T10:25:02.009Z,23.26
2018-11-29T10:26:54.964Z,23.28
2018-11-29T10:27:54.981Z,23.32
2018-11-29T10:29:47.926Z,23.29
2018-11-29T10:30:47.958Z,23.25
2018-11-29T10:32:40.914Z,23.33
2018-11-29T10:33:40.935Z,23.29
2018-11-29T10:35:33.881Z,23.25
2018-11-29T10:36:33.911Z,23.34
2018-11-29T10:38:26.868Z,23.29
2018-11-29T10:39:26.890Z,23.28
2018-11-29T10:41:19.844Z,23.29
2018-11-29T10:42:19.867Z,23.26
2018-11-29T10:44:12.816Z,23.25
2018-11-29T10:45:12.846Z,23.37
2018-11-29T10:47:05.800Z,23.29
2018-11-29T10:48:05.828Z,23.32
2018-11-29T10:49:58.771Z,23.39
2018-11-29T10:50:58.800Z,23.20
2018-11-29T10:52:51.757Z,23.33
2018-11-29T10:53:51.783Z,23.32
2018-11-29T10:55:44.727Z,23.29
2018-11-29T10:56:44.757Z,23.26
2018-11-29T10:58:37.712Z,23.33
2018-11-29T10:59:37.733Z,23.34
2018-11-29T11:01:30.691Z,23.33
2018-11-29T11:02:30.712Z,23.33
2018-11-29T11:04:23.657Z,23.37
2018-11-29T11:05:23.687Z,23.26
2018-11-29T11:07:16.639Z,23.33
2018-11-29T11:08:16.662Z,23.32
2018-11-29T11:10:09.618Z,23.26
2018-11-29T11:11:09.644Z,23.33
2018-11-29T11:13:02.601Z,23.28
2018-11-29T11:14:02.623Z,23.39
2018-11-29T11:15:55.567Z,23.36
2018-11-29T11:16:55.597Z,23.39
2018-11-29T11:18:48.554Z,23.32
2018-11-29T11:19:48.575Z,23.26
2018-11-29T11:21:41.521Z,23.37
2018-11-29T11:22:41.552Z,23.32
2018-11-29T11:24:34.513Z,23.34
2018-11-29T11:25:34.529Z,23.39
2018-11-29T11:27:27.487Z,23.37
2018-11-29T11:28:27.509Z,23.48
2018-11-29T11:30:20.597Z,23.39
2018-11-29T11:31:20.484Z,23.33
2018-11-29T11:33:13.442Z,23.37
2018-11-29T11:34:13.463Z,23.42
2018-11-29T11:36:06.410Z,23.44
2018-11-29T11:37:06.439Z,23.29
2018-11-29T11:38:59.396Z,23.37
2018-11-29T11:39:59.438Z,23.37
2018-11-29T11:41:52.383Z,23.36
2018-11-29T11:42:52.391Z,23.29
2018-11-29T11:44:45.349Z,23.20
2018-11-29T11:45:45.371Z,23.32
2018-11-29T11:47:38.327Z,23.29
2018-11-29T11:48:38.352Z,23.26
2018-11-29T11:50:31.297Z,23.29
2018-11-29T11:51:31.326Z,23.26
2018-11-29T11:53:24.283Z,23.37
2018-11-29T11:54:24.300Z,23.37
2018-11-29T11:56:17.249Z,23.21
2018-11-29T11:57:17.279Z,23.28
2018-11-29T11:59:10.253Z,23.36
2018-11-29T12:00:10.256Z,23.28
2018-11-29T12:02:03.203Z,23.20
2018-11-29T12:03:03.235Z,23.37
2018-11-29T12:04:56.189Z,23.28
2018-11-29T12:05:56.210Z,23.28
2018-11-29T12:07:49.162Z,23.28
2018-11-29T12:08:49.183Z,23.29
2018-11-29T12:10:42.134Z,23.42
2018-11-29T12:11:42.161Z,23.47
2018-11-29T12:13:35.112Z,23.40
2018-11-29T12:14:35.135Z,23.39
2018-11-29T12:16:28.083Z,23.39
2018-11-29T12:17:28.112Z,23.40
2018-11-29T12:19:21.066Z,23.32
2018-11-29T12:20:21.088Z,23.39
2018-11-29T12:22:14.036Z,23.39
2018-11-29T12:23:14.066Z,23.42
2018-11-29T12:25:07.023Z,23.34
2018-11-29T12:26:07.043Z,23.40
2018-11-29T12:28:00.046Z,23.54
2018-11-29T12:29:00.022Z,23.44
2018-11-29T12:30:52.968Z,23.42
2018-11-29T12:31:53.003Z,23.44
2018-11-29T12:33:45.955Z,23.54
2018-11-29T12:34:46.059Z,23.36
2018-11-29T12:36:38.922Z,23.40
2018-11-29T12:37:38.953Z,23.49
2018-11-29T12:39:31.909Z,23.40
2018-11-29T12:40:31.928Z,23.40
2018-11-29T12:42:24.873Z,23.45
2018-11-29T12:43:24.902Z,23.42
2018-11-29T12:45:17.859Z,23.37
2018-11-29T12:46:17.881Z,23.34
2018-11-29T12:48:10.837Z,23.36
2018-11-29T12:49:10.859Z,23.39
2018-11-29T12:51:03.807Z,23.54
2018-11-29T12:52:03.838Z,23.49
2018-11-29T12:53:56.793Z,23.55
2018-11-29T12:54:56.818Z,23.51
2018-11-29T12:56:49.765Z,23.63
2018-11-29T12:58:04.376Z,23.59
2018-11-29T12:59:42.752Z,23.69
2018-11-29T13:00:42.772Z,23.67
2018-11-29T13:02:35.718Z,23.70
2018-11-29T13:03:35.745Z,23.69
2018-11-29T13:05:28.705Z,23.56
2018-11-29T13:06:28.725Z,23.52
2018-11-29T13:08:21.682Z,23.42
2018-11-29T13:09:21.702Z,23.44
2018-11-29T13:11:14.650Z,23.47
2018-11-29T13:12:14.682Z,23.48
2018-11-29T13:14:07.710Z,23.36
2018-11-29T13:15:07.711Z,23.44
2018-11-29T13:17:00.605Z,23.28
2018-11-29T13:18:00.637Z,23.34
2018-11-29T13:19:53.593Z,23.34
2018-11-29T13:20:53.616Z,23.40
2018-11-29T13:22:46.607Z,23.36
2018-11-29T13:23:46.595Z,23.26
2018-11-29T13:25:39.551Z,23.39
2018-11-29T13:26:39.571Z,23.42
2018-11-29T13:28:32.529Z,23.39
2018-11-29T13:29:32.548Z,23.39
2018-11-29T13:31:25.494Z,23.39
2018-11-29T13:32:25.526Z,23.28
2018-11-29T13:34:18.483Z,23.39
2018-11-29T13:35:18.502Z,23.29
2018-11-29T13:37:11.449Z,23.26
2018-11-29T13:38:11.482Z,23.29
2018-11-29T13:40:04.435Z,23.33
2018-11-29T13:41:04.456Z,23.26
2018-11-29T13:42:57.402Z,23.28
2018-11-29T13:43:57.433Z,23.25
2018-11-29T13:45:50.391Z,23.26
2018-11-29T13:46:50.411Z,23.29
2018-11-29T13:48:43.372Z,23.39
2018-11-29T13:49:43.392Z,23.34
2018-11-29T13:51:36.331Z,23.42
2018-11-29T13:52:36.364Z,23.37
2018-11-29T13:54:29.316Z,23.37
2018-11-29T13:55:29.337Z,23.29
2018-11-29T13:57:22.288Z,23.26
2018-11-29T13:58:22.318Z,23.29
2018-11-29T14:00:15.273Z,23.36
2018-11-29T14:01:15.295Z,23.26
2018-11-29T14:03:08.245Z,23.28
2018-11-29T14:04:08.306Z,23.23
2018-11-29T14:06:01.230Z,23.28
2018-11-29T14:07:01.254Z,23.29
2018-11-29T14:08:54.209Z,23.25
2018-11-29T14:09:54.232Z,23.32
2018-11-29T14:11:47.668Z,23.29
2018-11-29T14:12:47.699Z,23.28
2018-11-29T14:14:41.148Z,23.34
2018-11-29T14:15:41.165Z,23.37
2018-11-29T14:17:34.148Z,23.34
2018-11-29T14:18:34.153Z,23.26
2018-11-29T14:20:27.109Z,23.37
2018-11-29T14:21:27.132Z,23.44
2018-11-29T14:23:20.075Z,23.26
2018-11-29T14:24:20.109Z,23.25
2018-11-29T14:26:13.059Z,23.26
2018-11-29T14:27:13.083Z,23.26
2018-11-29T14:29:06.038Z,23.40
2018-11-29T14:30:06.058Z,23.33
2018-11-29T14:31:59.007Z,23.32
2018-11-29T14:32:59.038Z,23.28
2018-11-29T14:34:52.055Z,23.28
2018-11-29T14:35:52.018Z,23.37
2018-11-29T14:37:45.004Z,23.32
2018-11-29T14:38:44.996Z,23.29
2018-11-29T14:40:37.953Z,23.26
2018-11-29T14:41:37.974Z,23.37
2018-11-29T14:43:30.919Z,23.40
2018-11-29T14:44:30.964Z,23.34
2018-11-29T14:46:23.903Z,23.45
2018-11-29T14:47:23.927Z,23.45
2018-11-29T14:49:16.886Z,23.47
2018-11-29T14:50:17.220Z,23.44
2018-11-29T14:52:09.859Z,23.44
2018-11-29T14:53:09.886Z,23.52
2018-11-29T14:55:03.369Z,23.66
2018-11-29T14:56:03.426Z,23.62
2018-11-29T14:57:56.298Z,23.63
2018-11-29T14:58:56.331Z,23.66
2018-11-29T15:00:49.284Z,23.66
2018-11-29T15:01:49.307Z,23.62
2018-11-29T15:03:42.252Z,23.69
2018-11-29T15:04:42.284Z,23.56
2018-11-29T15:06:35.239Z,23.51
2018-11-29T15:07:35.261Z,23.54
2018-11-29T15:09:28.216Z,23.62
2018-11-29T15:10:28.238Z,23.58
2018-11-29T15:12:21.181Z,23.58
2018-11-29T15:13:21.215Z,23.54
2018-11-29T15:15:14.171Z,23.63
2018-11-29T15:16:14.195Z,23.63
2018-11-29T15:18:07.633Z,23.73
2018-11-29T15:19:07.663Z,23.56
2018-11-29T15:21:01.109Z,23.62
2018-11-29T15:22:01.179Z,23.71
2018-11-29T15:23:54.081Z,23.69
2018-11-29T15:24:54.108Z,23.69
2018-11-29T15:26:47.554Z,23.62
2018-11-29T15:27:47.580Z,23.52
2018-11-29T15:29:40.530Z,23.51
2018-11-29T15:30:40.556Z,23.51
2018-11-29T15:32:33.505Z,23.51
2018-11-29T15:33:33.537Z,23.59
2018-11-29T15:35:26.980Z,23.52
2018-11-29T15:36:27.004Z,23.55
2018-11-29T15:38:19.949Z,23.54
2018-11-29T15:39:19.980Z,23.52
2018-11-29T15:41:18.034Z,23.55
2018-11-29T15:42:13.449Z,23.54
2018-11-29T15:44:06.893Z,23.49
2018-11-29T15:45:06.917Z,23.55
2018-11-29T15:47:00.383Z,23.66
2018-11-29T15:48:00.398Z,23.66
2018-11-29T15:49:53.847Z,23.52
2018-11-29T15:50:53.869Z,23.52
2018-11-29T15:52:47.317Z,23.54
2018-11-29T15:53:47.354Z,23.55
2018-11-29T15:55:40.798Z,23.54
2018-11-29T15:56:40.820Z,23.52
2018-11-29T15:58:33.764Z,23.48
2018-11-29T15:59:33.797Z,23.51
2018-11-29T16:01:26.754Z,23.45
2018-11-29T16:02:26.776Z,23.54
2018-11-29T16:04:20.215Z,23.48
2018-11-29T16:05:20.245Z,23.51
2018-11-29T16:07:13.709Z,23.49
2018-11-29T16:08:13.728Z,23.39
2018-11-29T16:10:07.185Z,23.40
2018-11-29T16:11:07.208Z,23.49
2018-11-29T16:13:00.161Z,23.47
2018-11-29T16:14:00.190Z,23.48
2018-11-29T16:15:53.636Z,23.40
2018-11-29T16:16:53.659Z,23.51
2018-11-29T16:18:47.155Z,23.55
2018-11-29T16:19:47.126Z,23.45
2018-11-29T16:21:40.592Z,23.52
2018-11-29T16:22:40.611Z,23.54
2018-11-29T16:24:34.064Z,23.51
2018-11-29T16:25:34.092Z,23.52
2018-11-29T16:27:27.048Z,23.20
2018-11-29T16:28:27.070Z,23.01
2018-11-29T16:30:20.025Z,23.02
2018-11-29T16:31:20.047Z,23.18
2018-11-29T16:33:13.499Z,23.29
2018-11-29T16:34:13.526Z,23.37
2018-11-29T16:36:06.979Z,23.44
2018-11-29T16:37:07.049Z,23.40
2018-11-29T16:39:00.446Z,23.66
2018-11-29T16:40:00.478Z,23.54
2018-11-29T16:41:53.432Z,23.54
2018-11-29T16:42:53.453Z,23.51
2018-11-29T16:44:46.432Z,23.58
2018-11-29T16:45:46.435Z,23.66
2018-11-29T16:47:39.387Z,23.51
2018-11-29T16:48:39.412Z,23.51
2018-11-29T16:50:32.366Z,23.55
2018-11-29T16:51:32.385Z,23.62
2018-11-29T16:53:25.335Z,23.71
2018-11-29T16:54:25.363Z,23.71
2018-11-29T16:56:18.322Z,23.71
2018-11-29T16:57:18.341Z,23.69
2018-11-29T16:59:11.291Z,23.73
2018-11-29T17:00:11.317Z,23.67
2018-11-29T17:02:04.267Z,23.66
2018-11-29T17:03:04.293Z,23.67
2018-11-29T17:04:57.235Z,23.59
2018-11-29T17:05:57.264Z,23.55
2018-11-29T17:07:50.223Z,23.55
2018-11-29T17:08:50.244Z,23.52
2018-11-29T17:10:43.199Z,23.54
2018-11-29T17:11:43.218Z,23.63
2018-11-29T17:13:36.163Z,23.62
2018-11-29T17:14:36.194Z,23.63
2018-11-29T17:16:29.151Z,23.54
2018-11-29T17:17:29.169Z,23.52
2018-11-29T17:19:22.117Z,23.67
2018-11-29T17:20:22.147Z,23.64
2018-11-29T17:22:15.103Z,23.59
2018-11-29T17:23:15.121Z,23.59
2018-11-29T17:25:08.071Z,23.62
2018-11-29T17:26:08.102Z,23.66
2018-11-29T17:28:01.059Z,23.62
2018-11-29T17:29:01.080Z,23.66
2018-11-29T17:30:54.036Z,23.62
2018-11-29T17:31:54.057Z,23.62
2018-11-29T17:33:47.005Z,23.62
2018-11-29T17:34:47.043Z,23.64
2018-11-29T17:36:39.992Z,23.59
2018-11-29T17:37:40.012Z,23.63
2018-11-29T17:39:32.957Z,23.63
2018-11-29T17:40:32.988Z,23.63
2018-11-29T17:42:25.944Z,23.74
2018-11-29T17:43:25.964Z,23.63
2018-11-29T17:45:18.911Z,23.70
2018-11-29T17:46:18.943Z,23.71
2018-11-29T17:48:11.900Z,23.79
2018-11-29T17:49:11.921Z,23.74
2018-11-29T17:51:04.877Z,23.76
2018-11-29T17:52:04.897Z,23.73
2018-11-29T17:53:57.856Z,23.73
2018-11-29T17:54:57.878Z,23.84
2018-11-29T17:56:50.830Z,23.71
2018-11-29T17:57:50.861Z,23.70
2018-11-29T17:59:43.803Z,23.81
2018-11-29T18:00:43.837Z,23.76
2018-11-29T18:02:36.792Z,23.76
2018-11-29T18:03:36.810Z,23.77
2018-11-29T18:05:30.007Z,23.76
2018-11-29T18:06:29.794Z,23.73
2018-11-29T18:08:22.739Z,23.73
2018-11-29T18:09:22.763Z,23.76
2018-11-29T18:11:15.736Z,23.82
2018-11-29T18:12:15.740Z,23.77
2018-11-29T18:14:08.698Z,23.71
2018-11-29T18:15:08.725Z,23.79
2018-11-29T18:17:01.676Z,23.86
2018-11-29T18:18:01.696Z,23.92
2018-11-29T18:19:55.140Z,24.00
2018-11-29T18:20:55.169Z,23.95
2018-11-29T18:22:48.126Z,23.95
2018-11-29T18:23:48.149Z,23.84
2018-11-29T18:25:41.102Z,23.95
2018-11-29T18:26:41.130Z,23.99
2018-11-29T18:28:34.085Z,23.81
2018-11-29T18:29:34.108Z,23.76
2018-11-29T18:31:27.054Z,23.84
2018-11-29T18:32:27.084Z,23.73
2018-11-29T18:34:20.043Z,23.63